sensor_id;sensor_type;location;lat;lon;timestamp;P1;durP1;ratioP1;P2;durP2;ratioP2
38693;SDS011;24447;43.460;25.744;2022-12-07T00:01:25;77.30;;;29.80;;
38693;SDS011;24447;43.460;25.744;2022-12-07T00:03:53;67.75;;;24.85;;
38693;SDS011;24447;43.460;25.744;2022-12-07T00:06:22;56.33;;;24.45;;
38693;SDS011;24447;43.460;25.744;2022-12-07T00:08:48;52.42;;;20.45;;
38693;SDS011;24447;43.460;25.744;2022-12-07T00:11:18;63.03;;;24.73;;
38693;SDS011;24447;43.460;25.744;2022-12-07T00:13:45;60.95;;;25.38;;
38693;SDS011;24447;43.460;25.744;2022-12-07T00:16:13;61.15;;;27.90;;
38693;SDS011;24447;43.460;25.744;2022-12-07T00:18:40;72.93;;;30.60;;
38693;SDS011;24447;43.460;25.744;2022-12-07T00:21:11;55.70;;;20.75;;
38693;SDS011;24447;43.460;25.744;2022-12-07T00:23:48;48.17;;;17.65;;
38693;SDS011;24447;43.460;25.744;2022-12-07T00:26:15;48.47;;;16.98;;
38693;SDS011;24447;43.460;25.744;2022-12-07T00:28:47;47.90;;;19.65;;
38693;SDS011;24447;43.460;25.744;2022-12-07T00:31:13;46.92;;;18.85;;
38693;SDS011;24447;43.460;25.744;2022-12-07T00:33:40;49.60;;;20.83;;
38693;SDS011;24447;43.460;25.744;2022-12-07T00:36:08;51.85;;;21.17;;
38693;SDS011;24447;43.460;25.744;2022-12-07T00:38:37;63.25;;;26.63;;
38693;SDS011;24447;43.460;25.744;2022-12-07T00:41:04;66.35;;;28.98;;
38693;SDS011;24447;43.460;25.744;2022-12-07T00:43:32;51.65;;;22.75;;
38693;SDS011;24447;43.460;25.744;2022-12-07T00:45:58;62.45;;;27.65;;
38693;SDS011;24447;43.460;25.744;2022-12-07T00:48:24;67.50;;;25.60;;
38693;SDS011;24447;43.460;25.744;2022-12-07T00:50:50;44.85;;;18.65;;
38693;SDS011;24447;43.460;25.744;2022-12-07T00:53:16;47.25;;;16.35;;
38693;SDS011;24447;43.460;25.744;2022-12-07T00:55:43;60.95;;;27.73;;
38693;SDS011;24447;43.460;25.744;2022-12-07T00:58:09;56.60;;;24.20;;
38693;SDS011;24447;43.460;25.744;2022-12-07T01:00:36;60.08;;;25.70;;
38693;SDS011;24447;43.460;25.744;2022-12-07T01:03:03;63.83;;;25.13;;
38693;SDS011;24447;43.460;25.744;2022-12-07T01:05:30;54.85;;;18.67;;
38693;SDS011;24447;43.460;25.744;2022-12-07T01:07:56;73.38;;;31.35;;
38693;SDS011;24447;43.460;25.744;2022-12-07T01:10:22;76.63;;;33.75;;
38693;SDS011;24447;43.460;25.744;2022-12-07T01:12:48;65.65;;;29.23;;
38693;SDS011;24447;43.460;25.744;2022-12-07T01:15:14;52.22;;;21.35;;
38693;SDS011;24447;43.460;25.744;2022-12-07T01:17:40;48.97;;;15.52;;
38693;SDS011;24447;43.460;25.744;2022-12-07T01:20:06;56.78;;;22.73;;
38693;SDS011;24447;43.460;25.744;2022-12-07T01:22:36;52.40;;;19.58;;
38693;SDS011;24447;43.460;25.744;2022-12-07T01:25:04;53.53;;;19.80;;
38693;SDS011;24447;43.460;25.744;2022-12-07T01:27:30;45.92;;;15.38;;
38693;SDS011;24447;43.460;25.744;2022-12-07T01:29:58;37.17;;;15.52;;
38693;SDS011;24447;43.460;25.744;2022-12-07T01:32:24;47.22;;;17.50;;
38693;SDS011;24447;43.460;25.744;2022-12-07T01:34:50;51.10;;;18.98;;
38693;SDS011;24447;43.460;25.744;2022-12-07T01:37:16;40.53;;;13.95;;
38693;SDS011;24447;43.460;25.744;2022-12-07T01:39:42;47.67;;;12.02;;
38693;SDS011;24447;43.460;25.744;2022-12-07T01:42:11;48.88;;;17.08;;
38693;SDS011;24447;43.460;25.744;2022-12-07T01:47:41;37.95;;;13.93;;
38693;SDS011;24447;43.460;25.744;2022-12-07T01:50:08;48.22;;;16.35;;
38693;SDS011;24447;43.460;25.744;2022-12-07T01:52:34;34.78;;;11.95;;
38693;SDS011;24447;43.460;25.744;2022-12-07T01:55:03;40.63;;;14.38;;
38693;SDS011;24447;43.460;25.744;2022-12-07T01:57:32;40.22;;;12.88;;
38693;SDS011;24447;43.460;25.744;2022-12-07T01:59:59;47.03;;;16.27;;
38693;SDS011;24447;43.460;25.744;2022-12-07T02:02:27;44.03;;;16.73;;
38693;SDS011;24447;43.460;25.744;2022-12-07T02:04:57;41.42;;;15.10;;
38693;SDS011;24447;43.460;25.744;2022-12-07T02:07:24;48.20;;;20.58;;
38693;SDS011;24447;43.460;25.744;2022-12-07T02:09:51;56.88;;;19.02;;
38693;SDS011;24447;43.460;25.744;2022-12-07T02:12:17;46.22;;;16.05;;
38693;SDS011;24447;43.460;25.744;2022-12-07T02:14:43;45.70;;;14.70;;
38693;SDS011;24447;43.460;25.744;2022-12-07T02:19:59;49.08;;;14.43;;
38693;SDS011;24447;43.460;25.744;2022-12-07T02:31:12;42.88;;;16.52;;
38693;SDS011;24447;43.460;25.744;2022-12-07T02:33:48;48.63;;;15.55;;
38693;SDS011;24447;43.460;25.744;2022-12-07T02:36:27;42.05;;;13.52;;
38693;SDS011;24447;43.460;25.744;2022-12-07T02:38:56;46.38;;;13.57;;
38693;SDS011;24447;43.460;25.744;2022-12-07T02:44:07;36.93;;;10.80;;
38693;SDS011;24447;43.460;25.744;2022-12-07T02:46:42;41.33;;;13.70;;
38693;SDS011;24447;43.460;25.744;2022-12-07T02:49:10;41.55;;;13.27;;
38693;SDS011;24447;43.460;25.744;2022-12-07T02:51:41;38.60;;;12.32;;
38693;SDS011;24447;43.460;25.744;2022-12-07T02:54:12;46.35;;;13.77;;
38693;SDS011;24447;43.460;25.744;2022-12-07T03:08:10;50.72;;;16.33;;
38693;SDS011;24447;43.460;25.744;2022-12-07T03:13:24;39.20;;;12.25;;
38693;SDS011;24447;43.460;25.744;2022-12-07T03:16:02;43.17;;;12.98;;
38693;SDS011;24447;43.460;25.744;2022-12-07T03:18:35;40.10;;;14.77;;
38693;SDS011;24447;43.460;25.744;2022-12-07T03:21:14;53.08;;;13.85;;
38693;SDS011;24447;43.460;25.744;2022-12-07T03:23:43;38.35;;;13.70;;
38693;SDS011;24447;43.460;25.744;2022-12-07T03:26:11;54.75;;;13.98;;
38693;SDS011;24447;43.460;25.744;2022-12-07T03:28:39;41.28;;;14.43;;
38693;SDS011;24447;43.460;25.744;2022-12-07T03:33:39;49.22;;;15.95;;
38693;SDS011;24447;43.460;25.744;2022-12-07T03:36:23;51.53;;;16.65;;
38693;SDS011;24447;43.460;25.744;2022-12-07T03:38:57;55.20;;;14.57;;
38693;SDS011;24447;43.460;25.744;2022-12-07T03:41:28;51.38;;;15.77;;
38693;SDS011;24447;43.460;25.744;2022-12-07T03:43:57;54.83;;;15.88;;
38693;SDS011;24447;43.460;25.744;2022-12-07T03:46:42;48.22;;;13.82;;
38693;SDS011;24447;43.460;25.744;2022-12-07T03:54:54;55.47;;;16.52;;
38693;SDS011;24447;43.460;25.744;2022-12-07T03:57:24;58.03;;;16.98;;
38693;SDS011;24447;43.460;25.744;2022-12-07T03:59:51;45.58;;;14.82;;
38693;SDS011;24447;43.460;25.744;2022-12-07T04:02:19;54.20;;;15.68;;
38693;SDS011;24447;43.460;25.744;2022-12-07T04:04:46;47.05;;;14.65;;
38693;SDS011;24447;43.460;25.744;2022-12-07T04:07:12;49.30;;;15.40;;
38693;SDS011;24447;43.460;25.744;2022-12-07T04:09:38;58.30;;;17.58;;
38693;SDS011;24447;43.460;25.744;2022-12-07T04:12:04;61.35;;;19.92;;
38693;SDS011;24447;43.460;25.744;2022-12-07T04:14:30;76.72;;;25.10;;
38693;SDS011;24447;43.460;25.744;2022-12-07T04:16:56;63.50;;;21.63;;
38693;SDS011;24447;43.460;25.744;2022-12-07T04:19:24;62.78;;;18.58;;
38693;SDS011;24447;43.460;25.744;2022-12-07T04:21:52;69.25;;;19.65;;
38693;SDS011;24447;43.460;25.744;2022-12-07T04:24:18;66.90;;;21.00;;
38693;SDS011;24447;43.460;25.744;2022-12-07T04:26:45;72.82;;;20.65;;
38693;SDS011;24447;43.460;25.744;2022-12-07T04:29:11;70.25;;;19.58;;
38693;SDS011;24447;43.460;25.744;2022-12-07T04:31:38;75.00;;;22.05;;
38693;SDS011;24447;43.460;25.744;2022-12-07T04:34:04;54.08;;;17.75;;
38693;SDS011;24447;43.460;25.744;2022-12-07T04:36:30;56.90;;;22.55;;
38693;SDS011;24447;43.460;25.744;2022-12-07T04:38:56;69.10;;;23.00;;
38693;SDS011;24447;43.460;25.744;2022-12-07T04:41:23;68.13;;;19.85;;
38693;SDS011;24447;43.460;25.744;2022-12-07T04:43:56;75.60;;;23.48;;
38693;SDS011;24447;43.460;25.744;2022-12-07T04:46:23;87.63;;;28.77;;
38693;SDS011;24447;43.460;25.744;2022-12-07T04:48:50;76.07;;;21.67;;
38693;SDS011;24447;43.460;25.744;2022-12-07T04:51:19;68.10;;;24.33;;
38693;SDS011;24447;43.460;25.744;2022-12-07T04:53:47;69.22;;;26.50;;
38693;SDS011;24447;43.460;25.744;2022-12-07T04:56:14;60.80;;;19.15;;
38693;SDS011;24447;43.460;25.744;2022-12-07T04:58:41;66.55;;;22.95;;
38693;SDS011;24447;43.460;25.744;2022-12-07T05:01:08;79.57;;;28.35;;
38693;SDS011;24447;43.460;25.744;2022-12-07T05:03:35;81.15;;;32.97;;
38693;SDS011;24447;43.460;25.744;2022-12-07T05:06:02;97.25;;;39.85;;
38693;SDS011;24447;43.460;25.744;2022-12-07T05:08:28;82.00;;;29.75;;
38693;SDS011;24447;43.460;25.744;2022-12-07T05:10:54;80.45;;;30.23;;
38693;SDS011;24447;43.460;25.744;2022-12-07T05:13:20;67.80;;;27.00;;
38693;SDS011;24447;43.460;25.744;2022-12-07T05:15:46;75.13;;;27.67;;
38693;SDS011;24447;43.460;25.744;2022-12-07T05:18:13;55.42;;;18.95;;
38693;SDS011;24447;43.460;25.744;2022-12-07T05:20:39;55.30;;;24.83;;
38693;SDS011;24447;43.460;25.744;2022-12-07T05:23:06;45.78;;;16.88;;
38693;SDS011;24447;43.460;25.744;2022-12-07T05:25:32;59.42;;;23.75;;
38693;SDS011;24447;43.460;25.744;2022-12-07T05:27:58;55.17;;;20.65;;
38693;SDS011;24447;43.460;25.744;2022-12-07T05:30:24;57.58;;;21.23;;
38693;SDS011;24447;43.460;25.744;2022-12-07T05:32:50;58.35;;;22.63;;
38693;SDS011;24447;43.460;25.744;2022-12-07T05:35:17;42.88;;;15.98;;
38693;SDS011;24447;43.460;25.744;2022-12-07T05:37:43;45.97;;;16.75;;
38693;SDS011;24447;43.460;25.744;2022-12-07T05:40:09;42.85;;;16.30;;
38693;SDS011;24447;43.460;25.744;2022-12-07T05:42:36;44.92;;;17.45;;
38693;SDS011;24447;43.460;25.744;2022-12-07T05:45:02;42.55;;;17.35;;
38693;SDS011;24447;43.460;25.744;2022-12-07T05:47:28;52.10;;;24.08;;
38693;SDS011;24447;43.460;25.744;2022-12-07T05:49:54;40.78;;;18.15;;
38693;SDS011;24447;43.460;25.744;2022-12-07T05:52:20;32.25;;;11.80;;
38693;SDS011;24447;43.460;25.744;2022-12-07T05:54:46;35.17;;;12.27;;
38693;SDS011;24447;43.460;25.744;2022-12-07T05:57:12;31.58;;;13.48;;
38693;SDS011;24447;43.460;25.744;2022-12-07T05:59:38;32.17;;;13.75;;
38693;SDS011;24447;43.460;25.744;2022-12-07T06:02:05;33.13;;;13.00;;
38693;SDS011;24447;43.460;25.744;2022-12-07T06:04:34;31.77;;;15.98;;
38693;SDS011;24447;43.460;25.744;2022-12-07T06:07:01;35.42;;;16.70;;
38693;SDS011;24447;43.460;25.744;2022-12-07T06:09:28;38.22;;;18.52;;
38693;SDS011;24447;43.460;25.744;2022-12-07T06:11:54;41.67;;;15.98;;
38693;SDS011;24447;43.460;25.744;2022-12-07T06:14:40;43.63;;;19.70;;
38693;SDS011;24447;43.460;25.744;2022-12-07T06:17:06;38.58;;;17.70;;
38693;SDS011;24447;43.460;25.744;2022-12-07T06:19:33;31.63;;;12.38;;
38693;SDS011;24447;43.460;25.744;2022-12-07T06:21:59;27.02;;;10.27;;
38693;SDS011;24447;43.460;25.744;2022-12-07T06:24:25;33.30;;;13.10;;
38693;SDS011;24447;43.460;25.744;2022-12-07T06:26:51;29.58;;;12.02;;
38693;SDS011;24447;43.460;25.744;2022-12-07T06:29:17;31.17;;;11.48;;
38693;SDS011;24447;43.460;25.744;2022-12-07T06:31:45;28.23;;;11.32;;
38693;SDS011;24447;43.460;25.744;2022-12-07T06:34:12;31.85;;;11.45;;
38693;SDS011;24447;43.460;25.744;2022-12-07T06:36:40;30.02;;;14.45;;
38693;SDS011;24447;43.460;25.744;2022-12-07T06:39:06;38.13;;;18.08;;
38693;SDS011;24447;43.460;25.744;2022-12-07T06:41:34;32.30;;;15.10;;
38693;SDS011;24447;43.460;25.744;2022-12-07T06:44:01;28.95;;;11.38;;
38693;SDS011;24447;43.460;25.744;2022-12-07T06:46:28;27.60;;;9.80;;
38693;SDS011;24447;43.460;25.744;2022-12-07T06:48:54;26.27;;;8.93;;
38693;SDS011;24447;43.460;25.744;2022-12-07T06:51:20;23.77;;;9.48;;
38693;SDS011;24447;43.460;25.744;2022-12-07T06:53:46;34.53;;;11.52;;
38693;SDS011;24447;43.460;25.744;2022-12-07T06:56:12;28.55;;;9.68;;
38693;SDS011;24447;43.460;25.744;2022-12-07T06:58:38;31.00;;;9.20;;
38693;SDS011;24447;43.460;25.744;2022-12-07T07:01:11;29.17;;;10.13;;
38693;SDS011;24447;43.460;25.744;2022-12-07T07:03:39;24.58;;;9.77;;
38693;SDS011;24447;43.460;25.744;2022-12-07T07:06:05;30.77;;;10.70;;
38693;SDS011;24447;43.460;25.744;2022-12-07T07:08:32;30.50;;;12.20;;
38693;SDS011;24447;43.460;25.744;2022-12-07T07:10:59;40.28;;;12.82;;
38693;SDS011;24447;43.460;25.744;2022-12-07T07:13:26;21.67;;;9.07;;
38693;SDS011;24447;43.460;25.744;2022-12-07T07:15:52;27.35;;;11.35;;
38693;SDS011;24447;43.460;25.744;2022-12-07T07:18:18;28.13;;;11.38;;
38693;SDS011;24447;43.460;25.744;2022-12-07T07:20:44;31.27;;;13.05;;
38693;SDS011;24447;43.460;25.744;2022-12-07T07:23:10;27.60;;;12.43;;
38693;SDS011;24447;43.460;25.744;2022-12-07T07:25:36;26.08;;;10.88;;
38693;SDS011;24447;43.460;25.744;2022-12-07T07:28:02;28.38;;;12.35;;
38693;SDS011;24447;43.460;25.744;2022-12-07T07:30:28;32.50;;;10.70;;
38693;SDS011;24447;43.460;25.744;2022-12-07T07:32:58;25.45;;;10.40;;
38693;SDS011;24447;43.460;25.744;2022-12-07T07:35:26;29.77;;;11.02;;
38693;SDS011;24447;43.460;25.744;2022-12-07T07:37:52;25.02;;;10.50;;
38693;SDS011;24447;43.460;25.744;2022-12-07T07:40:18;31.90;;;10.38;;
38693;SDS011;24447;43.460;25.744;2022-12-07T07:42:46;26.13;;;11.20;;
38693;SDS011;24447;43.460;25.744;2022-12-07T07:45:13;24.95;;;8.70;;
38693;SDS011;24447;43.460;25.744;2022-12-07T07:47:39;35.22;;;12.73;;
38693;SDS011;24447;43.460;25.744;2022-12-07T07:50:05;32.22;;;12.15;;
38693;SDS011;24447;43.460;25.744;2022-12-07T07:52:32;35.80;;;11.70;;
38693;SDS011;24447;43.460;25.744;2022-12-07T07:54:58;33.85;;;12.40;;
38693;SDS011;24447;43.460;25.744;2022-12-07T07:57:23;29.50;;;11.00;;
38693;SDS011;24447;43.460;25.744;2022-12-07T07:59:49;30.05;;;10.30;;
38693;SDS011;24447;43.460;25.744;2022-12-07T08:02:17;24.70;;;8.13;;
38693;SDS011;24447;43.460;25.744;2022-12-07T08:04:44;27.77;;;10.63;;
38693;SDS011;24447;43.460;25.744;2022-12-07T08:07:11;20.23;;;8.50;;
38693;SDS011;24447;43.460;25.744;2022-12-07T08:09:37;27.40;;;10.00;;
38693;SDS011;24447;43.460;25.744;2022-12-07T08:12:03;23.75;;;9.40;;
38693;SDS011;24447;43.460;25.744;2022-12-07T08:14:30;21.17;;;8.15;;
38693;SDS011;24447;43.460;25.744;2022-12-07T08:16:56;21.70;;;8.48;;
38693;SDS011;24447;43.460;25.744;2022-12-07T08:19:22;24.58;;;10.23;;
38693;SDS011;24447;43.460;25.744;2022-12-07T08:21:48;25.17;;;9.77;;
38693;SDS011;24447;43.460;25.744;2022-12-07T08:24:14;26.88;;;10.32;;
38693;SDS011;24447;43.460;25.744;2022-12-07T08:26:41;24.45;;;9.55;;
38693;SDS011;24447;43.460;25.744;2022-12-07T08:29:07;26.15;;;10.05;;
38693;SDS011;24447;43.460;25.744;2022-12-07T08:31:33;25.48;;;9.85;;
38693;SDS011;24447;43.460;25.744;2022-12-07T08:33:59;19.80;;;9.50;;
38693;SDS011;24447;43.460;25.744;2022-12-07T08:36:25;48.60;;;13.25;;
38693;SDS011;24447;43.460;25.744;2022-12-07T08:38:51;29.75;;;11.23;;
38693;SDS011;24447;43.460;25.744;2022-12-07T08:41:17;24.00;;;8.70;;
38693;SDS011;24447;43.460;25.744;2022-12-07T08:43:43;21.95;;;8.70;;
38693;SDS011;24447;43.460;25.744;2022-12-07T08:48:37;29.27;;;9.30;;
38693;SDS011;24447;43.460;25.744;2022-12-07T08:51:05;23.35;;;10.48;;
38693;SDS011;24447;43.460;25.744;2022-12-07T08:53:31;21.50;;;9.05;;
38693;SDS011;24447;43.460;25.744;2022-12-07T08:55:58;26.40;;;9.90;;
38693;SDS011;24447;43.460;25.744;2022-12-07T08:58:24;27.50;;;11.40;;
38693;SDS011;24447;43.460;25.744;2022-12-07T09:00:50;28.08;;;9.95;;
38693;SDS011;24447;43.460;25.744;2022-12-07T09:03:16;26.83;;;10.35;;
38693;SDS011;24447;43.460;25.744;2022-12-07T09:05:42;25.92;;;10.23;;
38693;SDS011;24447;43.460;25.744;2022-12-07T09:08:08;31.63;;;10.63;;
38693;SDS011;24447;43.460;25.744;2022-12-07T09:10:34;26.73;;;10.35;;
38693;SDS011;24447;43.460;25.744;2022-12-07T09:13:00;26.77;;;9.60;;
38693;SDS011;24447;43.460;25.744;2022-12-07T09:15:29;28.65;;;11.65;;
38693;SDS011;24447;43.460;25.744;2022-12-07T09:17:56;24.60;;;10.88;;
38693;SDS011;24447;43.460;25.744;2022-12-07T09:20:22;21.65;;;10.43;;
38693;SDS011;24447;43.460;25.744;2022-12-07T09:22:48;33.05;;;12.55;;
38693;SDS011;24447;43.460;25.744;2022-12-07T09:25:14;28.55;;;10.85;;
38693;SDS011;24447;43.460;25.744;2022-12-07T09:27:40;31.90;;;13.30;;
38693;SDS011;24447;43.460;25.744;2022-12-07T09:30:07;28.10;;;11.05;;
38693;SDS011;24447;43.460;25.744;2022-12-07T09:32:33;27.80;;;10.23;;
38693;SDS011;24447;43.460;25.744;2022-12-07T09:34:59;25.42;;;9.68;;
38693;SDS011;24447;43.460;25.744;2022-12-07T09:37:25;30.17;;;10.75;;
38693;SDS011;24447;43.460;25.744;2022-12-07T09:39:51;26.30;;;10.23;;
38693;SDS011;24447;43.460;25.744;2022-12-07T09:42:25;28.92;;;11.70;;
38693;SDS011;24447;43.460;25.744;2022-12-07T09:44:52;22.58;;;9.20;;
38693;SDS011;24447;43.460;25.744;2022-12-07T09:47:18;22.45;;;7.93;;
38693;SDS011;24447;43.460;25.744;2022-12-07T09:49:44;22.27;;;7.82;;
38693;SDS011;24447;43.460;25.744;2022-12-07T09:52:26;17.48;;;7.25;;
38693;SDS011;24447;43.460;25.744;2022-12-07T09:54:53;18.70;;;7.43;;
38693;SDS011;24447;43.460;25.744;2022-12-07T09:57:24;21.50;;;6.70;;
38693;SDS011;24447;43.460;25.744;2022-12-07T09:59:56;17.40;;;6.35;;
38693;SDS011;24447;43.460;25.744;2022-12-07T10:02:44;19.80;;;5.95;;
38693;SDS011;24447;43.460;25.744;2022-12-07T10:05:18;21.20;;;7.15;;
38693;SDS011;24447;43.460;25.744;2022-12-07T10:07:47;16.58;;;6.05;;
38693;SDS011;24447;43.460;25.744;2022-12-07T10:10:23;16.00;;;5.95;;
38693;SDS011;24447;43.460;25.744;2022-12-07T10:12:54;18.10;;;7.80;;
38693;SDS011;24447;43.460;25.744;2022-12-07T10:23:32;21.92;;;7.00;;
38693;SDS011;24447;43.460;25.744;2022-12-07T10:25:59;26.50;;;8.70;;
38693;SDS011;24447;43.460;25.744;2022-12-07T10:28:33;28.10;;;11.13;;
38693;SDS011;24447;43.460;25.744;2022-12-07T10:31:00;31.02;;;11.40;;
38693;SDS011;24447;43.460;25.744;2022-12-07T10:33:33;25.45;;;11.40;;
38693;SDS011;24447;43.460;25.744;2022-12-07T10:36:38;32.72;;;12.98;;
38693;SDS011;24447;43.460;25.744;2022-12-07T10:39:10;24.60;;;9.70;;
38693;SDS011;24447;43.460;25.744;2022-12-07T10:44:27;26.95;;;10.57;;
38693;SDS011;24447;43.460;25.744;2022-12-07T10:49:45;29.98;;;10.63;;
38693;SDS011;24447;43.460;25.744;2022-12-07T10:52:34;35.25;;;15.18;;
38693;SDS011;24447;43.460;25.744;2022-12-07T10:55:12;42.45;;;15.13;;
38693;SDS011;24447;43.460;25.744;2022-12-07T10:57:47;37.42;;;15.05;;
38693;SDS011;24447;43.460;25.744;2022-12-07T11:00:24;26.98;;;9.95;;
38693;SDS011;24447;43.460;25.744;2022-12-07T11:06:03;33.65;;;15.05;;
38693;SDS011;24447;43.460;25.744;2022-12-07T11:11:31;33.63;;;14.15;;
38693;SDS011;24447;43.460;25.744;2022-12-07T11:19:32;38.20;;;16.55;;
38693;SDS011;24447;43.460;25.744;2022-12-07T11:24:32;32.30;;;15.05;;
38693;SDS011;24447;43.460;25.744;2022-12-07T11:34:43;28.88;;;12.77;;
38693;SDS011;24447;43.460;25.744;2022-12-07T11:37:24;24.90;;;10.60;;
38693;SDS011;24447;43.460;25.744;2022-12-07T11:39:54;30.88;;;10.20;;
38693;SDS011;24447;43.460;25.744;2022-12-07T11:42:29;30.05;;;13.63;;
38693;SDS011;24447;43.460;25.744;2022-12-07T11:45:02;33.45;;;14.60;;
38693;SDS011;24447;43.460;25.744;2022-12-07T11:50:39;32.65;;;15.00;;
38693;SDS011;24447;43.460;25.744;2022-12-07T11:53:10;46.22;;;20.20;;
38693;SDS011;24447;43.460;25.744;2022-12-07T11:55:50;44.80;;;18.98;;
38693;SDS011;24447;43.460;25.744;2022-12-07T11:58:25;29.67;;;13.15;;
38693;SDS011;24447;43.460;25.744;2022-12-07T12:03:34;44.63;;;18.05;;
38693;SDS011;24447;43.460;25.744;2022-12-07T12:06:03;31.15;;;13.07;;
38693;SDS011;24447;43.460;25.744;2022-12-07T12:08:31;36.53;;;14.45;;
38693;SDS011;24447;43.460;25.744;2022-12-07T12:19:58;29.48;;;11.32;;
38693;SDS011;24447;43.460;25.744;2022-12-07T12:22:40;37.55;;;15.73;;
38693;SDS011;24447;43.460;25.744;2022-12-07T12:25:15;33.03;;;13.20;;
38693;SDS011;24447;43.460;25.744;2022-12-07T12:27:47;32.03;;;13.07;;
38693;SDS011;24447;43.460;25.744;2022-12-07T12:46:47;52.30;;;20.25;;
38693;SDS011;24447;43.460;25.744;2022-12-07T12:51:47;37.70;;;14.15;;
38693;SDS011;24447;43.460;25.744;2022-12-07T12:54:15;37.08;;;18.25;;
38693;SDS011;24447;43.460;25.744;2022-12-07T12:59:21;32.85;;;13.88;;
38693;SDS011;24447;43.460;25.744;2022-12-07T13:04:55;44.92;;;18.83;;
38693;SDS011;24447;43.460;25.744;2022-12-07T13:20:48;25.77;;;11.00;;
38693;SDS011;24447;43.460;25.744;2022-12-07T13:23:20;36.53;;;15.88;;
38693;SDS011;24447;43.460;25.744;2022-12-07T13:25:54;35.83;;;13.88;;
38693;SDS011;24447;43.460;25.744;2022-12-07T13:28:22;32.20;;;14.55;;
38693;SDS011;24447;43.460;25.744;2022-12-07T13:34:04;22.85;;;9.85;;
38693;SDS011;24447;43.460;25.744;2022-12-07T13:36:33;29.08;;;11.27;;
38693;SDS011;24447;43.460;25.744;2022-12-07T13:41:41;31.90;;;13.15;;
38693;SDS011;24447;43.460;25.744;2022-12-07T13:44:11;34.80;;;13.68;;
38693;SDS011;24447;43.460;25.744;2022-12-07T13:51:48;35.53;;;14.77;;
38693;SDS011;24447;43.460;25.744;2022-12-07T13:54:14;34.40;;;12.98;;
38693;SDS011;24447;43.460;25.744;2022-12-07T13:56:40;29.38;;;10.70;;
38693;SDS011;24447;43.460;25.744;2022-12-07T13:59:13;37.28;;;17.23;;
38693;SDS011;24447;43.460;25.744;2022-12-07T14:01:40;43.60;;;18.17;;
38693;SDS011;24447;43.460;25.744;2022-12-07T14:04:16;46.80;;;20.35;;
38693;SDS011;24447;43.460;25.744;2022-12-07T14:06:56;34.55;;;14.30;;
38693;SDS011;24447;43.460;25.744;2022-12-07T14:09:23;40.38;;;15.25;;
38693;SDS011;24447;43.460;25.744;2022-12-07T14:11:52;53.78;;;23.52;;
38693;SDS011;24447;43.460;25.744;2022-12-07T14:14:23;55.38;;;25.00;;
38693;SDS011;24447;43.460;25.744;2022-12-07T14:17:18;39.28;;;17.73;;
38693;SDS011;24447;43.460;25.744;2022-12-07T14:25:09;58.03;;;28.55;;
38693;SDS011;24447;43.460;25.744;2022-12-07T14:27:47;53.83;;;22.23;;
38693;SDS011;24447;43.460;25.744;2022-12-07T14:30:15;40.67;;;17.65;;
38693;SDS011;24447;43.460;25.744;2022-12-07T14:32:42;40.90;;;15.90;;
38693;SDS011;24447;43.460;25.744;2022-12-07T14:35:13;35.40;;;14.00;;
38693;SDS011;24447;43.460;25.744;2022-12-07T14:37:41;37.08;;;14.18;;
38693;SDS011;24447;43.460;25.744;2022-12-07T14:40:12;31.58;;;13.82;;
38693;SDS011;24447;43.460;25.744;2022-12-07T14:42:39;38.00;;;16.65;;
38693;SDS011;24447;43.460;25.744;2022-12-07T14:45:05;33.17;;;13.70;;
38693;SDS011;24447;43.460;25.744;2022-12-07T14:47:32;30.15;;;13.10;;
38693;SDS011;24447;43.460;25.744;2022-12-07T14:49:58;29.20;;;10.57;;
38693;SDS011;24447;43.460;25.744;2022-12-07T14:52:27;30.90;;;11.57;;
38693;SDS011;24447;43.460;25.744;2022-12-07T14:57:20;35.03;;;15.55;;
38693;SDS011;24447;43.460;25.744;2022-12-07T14:59:46;37.05;;;17.73;;
38693;SDS011;24447;43.460;25.744;2022-12-07T15:02:13;44.05;;;20.90;;
38693;SDS011;24447;43.460;25.744;2022-12-07T15:04:39;45.78;;;22.52;;
38693;SDS011;24447;43.460;25.744;2022-12-07T15:07:09;47.97;;;24.17;;
38693;SDS011;24447;43.460;25.744;2022-12-07T15:09:41;48.92;;;24.08;;
38693;SDS011;24447;43.460;25.744;2022-12-07T15:12:06;41.67;;;19.77;;
38693;SDS011;24447;43.460;25.744;2022-12-07T15:14:32;36.65;;;17.35;;
38693;SDS011;24447;43.460;25.744;2022-12-07T15:16:58;52.30;;;22.17;;
38693;SDS011;24447;43.460;25.744;2022-12-07T15:19:25;54.47;;;23.52;;
38693;SDS011;24447;43.460;25.744;2022-12-07T15:21:52;47.38;;;20.50;;
38693;SDS011;24447;43.460;25.744;2022-12-07T15:24:18;35.70;;;18.17;;
38693;SDS011;24447;43.460;25.744;2022-12-07T15:26:45;41.13;;;18.98;;
38693;SDS011;24447;43.460;25.744;2022-12-07T15:29:11;40.15;;;18.30;;
38693;SDS011;24447;43.460;25.744;2022-12-07T15:31:39;45.05;;;20.75;;
38693;SDS011;24447;43.460;25.744;2022-12-07T15:34:05;45.35;;;22.77;;
38693;SDS011;24447;43.460;25.744;2022-12-07T15:36:32;50.03;;;18.75;;
38693;SDS011;24447;43.460;25.744;2022-12-07T15:38:59;47.15;;;20.40;;
38693;SDS011;24447;43.460;25.744;2022-12-07T15:41:25;53.60;;;21.38;;
38693;SDS011;24447;43.460;25.744;2022-12-07T15:43:51;48.03;;;22.92;;
38693;SDS011;24447;43.460;25.744;2022-12-07T15:46:37;52.45;;;20.83;;
38693;SDS011;24447;43.460;25.744;2022-12-07T15:49:06;52.42;;;24.02;;
38693;SDS011;24447;43.460;25.744;2022-12-07T15:51:34;58.90;;;24.05;;
38693;SDS011;24447;43.460;25.744;2022-12-07T15:54:00;60.15;;;26.10;;
38693;SDS011;24447;43.460;25.744;2022-12-07T15:56:26;61.40;;;26.23;;
38693;SDS011;24447;43.460;25.744;2022-12-07T15:58:52;70.82;;;31.05;;
38693;SDS011;24447;43.460;25.744;2022-12-07T16:01:18;82.63;;;38.30;;
38693;SDS011;24447;43.460;25.744;2022-12-07T16:03:45;79.18;;;38.15;;
38693;SDS011;24447;43.460;25.744;2022-12-07T16:06:11;61.67;;;29.55;;
38693;SDS011;24447;43.460;25.744;2022-12-07T16:08:41;70.72;;;29.25;;
38693;SDS011;24447;43.460;25.744;2022-12-07T16:11:09;63.30;;;25.05;;
38693;SDS011;24447;43.460;25.744;2022-12-07T16:13:35;54.03;;;21.50;;
38693;SDS011;24447;43.460;25.744;2022-12-07T16:16:09;52.17;;;21.40;;
38693;SDS011;24447;43.460;25.744;2022-12-07T16:18:36;57.00;;;21.95;;
38693;SDS011;24447;43.460;25.744;2022-12-07T16:21:01;54.50;;;22.63;;
38693;SDS011;24447;43.460;25.744;2022-12-07T16:23:28;50.65;;;19.90;;
38693;SDS011;24447;43.460;25.744;2022-12-07T16:25:54;64.20;;;24.95;;
38693;SDS011;24447;43.460;25.744;2022-12-07T16:28:21;51.95;;;21.52;;
38693;SDS011;24447;43.460;25.744;2022-12-07T16:30:47;49.20;;;20.33;;
38693;SDS011;24447;43.460;25.744;2022-12-07T16:33:13;63.15;;;22.10;;
38693;SDS011;24447;43.460;25.744;2022-12-07T16:35:39;55.60;;;21.77;;
38693;SDS011;24447;43.460;25.744;2022-12-07T16:38:09;58.15;;;23.83;;
38693;SDS011;24447;43.460;25.744;2022-12-07T16:40:35;53.00;;;23.92;;
38693;SDS011;24447;43.460;25.744;2022-12-07T16:43:00;56.60;;;24.00;;
38693;SDS011;24447;43.460;25.744;2022-12-07T16:45:26;62.85;;;24.45;;
38693;SDS011;24447;43.460;25.744;2022-12-07T16:47:52;57.80;;;23.92;;